Time,TemperatureF,DewpointF,PressureIn,WindDirection,WindDirectionDegrees,WindSpeedMPH,WindSpeedGustMPH,Humidity,HourlyPrecipIn,Conditions,Clouds,dailyrainin,SoftwareType,DateUTC
2013-01-24 00:00:00,43.2,25.8,30.21,WSW,252,3.0,3.0,50,0.00,,,0.00,Wunderground v.1.15,2013-01-24 07:00:00,
2013-01-24 00:10:00,43.0,25.6,30.21,SW,235,3.0,4.0,50,0.00,,,0.00,Wunderground v.1.15,2013-01-24 07:10:00,
2013-01-24 00:20:00,43.1,25.2,30.21,SW,221,5.0,6.0,49,0.00,,,0.00,Wunderground v.1.15,2013-01-24 07:20:00,
2013-01-24 00:25:00,43.5,24.6,30.21,SW,221,6.0,6.0,47,0.00,,,0.00,Wunderground v.1.15,2013-01-24 07:25:00,
2013-01-24 00:30:00,43.7,24.8,30.21,SW,222,5.0,5.0,47,0.00,,,0.00,Wunderground v.1.15,2013-01-24 07:30:00,
2013-01-24 00:35:00,43.9,24.4,30.21,SW,216,5.0,5.0,46,0.00,,,0.00,Wunderground v.1.15,2013-01-24 07:35:00,
2013-01-24 00:40:00,43.8,24.9,30.21,SW,234,4.0,4.0,47,0.00,,,0.00,Wunderground v.1.15,2013-01-24 07:40:00,
2013-01-24 00:50:00,43.5,25.1,30.21,SSW,212,5.0,5.0,48,0.00,,,0.00,Wunderground v.1.15,2013-01-24 07:50:00,
2013-01-24 01:00:00,43.6,25.2,30.21,SW,229,4.0,4.0,48,0.00,,,0.00,Wunderground v.1.15,2013-01-24 08:00:00,
2013-01-24 01:10:00,43.4,25.5,30.21,SW,233,3.0,5.0,49,0.00,,,0.00,Wunderground v.1.15,2013-01-24 08:10:00,
2013-01-24 01:15:00,43.0,25.6,30.21,SW,232,4.0,5.0,50,0.00,,,0.00,Wunderground v.1.15,2013-01-24 08:15:00,
2013-01-24 01:20:00,42.6,25.7,30.21,WSW,244,4.0,4.0,51,0.00,,,0.00,Wunderground v.1.15,2013-01-24 08:20:00,
2013-01-24 01:25:00,42.4,25.5,30.22,SW,233,4.0,5.0,51,0.00,,,0.00,Wunderground v.1.15,2013-01-24 08:25:00,
2013-01-24 01:30:00,42.4,25.5,30.21,WSW,247,3.0,3.0,51,0.00,,,0.00,Wunderground v.1.15,2013-01-24 08:30:00,
2013-01-24 01:40:00,42.8,25.4,30.22,WSW,243,3.0,3.0,50,0.00,,,0.00,Wunderground v.1.15,2013-01-24 08:40:00,
2013-01-24 01:45:00,42.8,24.9,30.22,WSW,258,4.0,4.0,49,0.00,,,0.00,Wunderground v.1.15,2013-01-24 08:45:00,
2013-01-24 01:50:00,42.8,24.9,30.22,WSW,257,2.0,2.0,49,0.00,,,0.00,Wunderground v.1.15,2013-01-24 08:50:00,
2013-01-24 01:55:00,43.2,24.8,30.22,WSW,257,1.0,2.0,48,0.00,,,0.00,Wunderground v.1.15,2013-01-24 08:55:00,
2013-01-24 02:00:00,43.5,25.1,30.22,SW,227,1.0,3.0,48,0.00,,,0.00,Wunderground v.1.15,2013-01-24 09:00:00,
2013-01-24 02:10:00,43.1,26.2,30.22,SW,226,3.0,3.0,51,0.00,,,0.00,Wunderground v.1.15,2013-01-24 09:10:00,
2013-01-24 02:15:00,42.8,25.9,30.22,SW,230,3.0,3.0,51,0.00,,,0.00,Wunderground v.1.15,2013-01-24 09:15:00,
2013-01-24 02:20:00,42.5,25.6,30.22,SW,230,3.0,3.0,51,0.00,,,0.00,Wunderground v.1.15,2013-01-24 09:20:00,
2013-01-24 02:30:00,42.5,25.6,30.22,SW,225,2.0,4.0,51,0.00,,,0.00,Wunderground v.1.15,2013-01-24 09:30:00,
2013-01-24 02:35:00,42.4,26.0,30.21,SW,224,3.0,4.0,52,0.00,,,0.00,Wunderground v.1.15,2013-01-24 09:35:00,
2013-01-24 02:40:00,42.1,26.2,30.22,SW,223,4.0,4.0,53,0.00,,,0.00,Wunderground v.1.15,2013-01-24 09:40:00,
2013-01-24 02:45:00,42.0,26.1,30.22,SW,223,5.0,5.0,53,0.00,,,0.00,Wunderground v.1.15,2013-01-24 09:45:00,
2013-01-24 02:50:00,41.9,26.4,30.22,SW,225,5.0,5.0,54,0.00,,,0.00,Wunderground v.1.15,2013-01-24 09:50:00,
2013-01-24 02:55:00,41.6,26.2,30.22,SW,226,4.0,5.0,54,0.00,,,0.00,Wunderground v.1.15,2013-01-24 09:55:00,
2013-01-24 03:00:00,41.7,26.3,30.22,SW,226,3.0,3.0,54,0.00,,,0.00,Wunderground v.1.15,2013-01-24 10:00:00,
2013-01-24 03:10:00,42.4,26.5,30.21,SW,226,2.0,2.0,53,0.00,,,0.00,Wunderground v.1.15,2013-01-24 10:10:00,
2013-01-24 03:20:00,42.8,26.8,30.21,SW,223,2.0,4.0,53,0.00,,,0.00,Wunderground v.1.15,2013-01-24 10:20:00,
2013-01-24 03:25:00,42.9,27.4,30.21,SW,223,3.0,4.0,54,0.00,,,0.00,Wunderground v.1.15,2013-01-24 10:25:00,
2013-01-24 03:30:00,43.0,27.5,30.21,SW,223,2.0,2.0,54,0.00,,,0.00,Wunderground v.1.15,2013-01-24 10:30:00,
2013-01-24 03:35:00,43.1,27.6,30.20,SW,223,2.0,3.0,54,0.00,,,0.00,Wunderground v.1.15,2013-01-24 10:35:00,
2013-01-24 03:40:00,43.3,27.3,30.20,SW,223,3.0,4.0,53,0.00,,,0.00,Wunderground v.1.15,2013-01-24 10:40:00,
2013-01-24 03:45:00,43.5,27.5,30.20,SW,223,3.0,4.0,53,0.00,,,0.00,Wunderground v.1.15,2013-01-24 10:45:00,
2013-01-24 03:55:00,43.7,27.7,30.20,SW,227,3.0,3.0,53,0.00,,,0.00,Wunderground v.1.15,2013-01-24 10:55:00,
2013-01-24 04:00:00,43.8,27.3,30.20,SW,227,3.0,3.0,52,0.00,,,0.00,Wunderground v.1.15,2013-01-24 11:00:00,
2013-01-24 04:10:00,44.3,27.3,30.20,SW,227,2.0,2.0,51,0.00,,,0.00,Wunderground v.1.15,2013-01-24 11:10:00,
2013-01-24 04:15:00,44.6,27.6,30.20,SW,227,2.0,2.0,51,0.00,,,0.00,Wunderground v.1.15,2013-01-24 11:15:00,
2013-01-24 04:20:00,44.6,27.6,30.20,SW,227,2.0,2.0,51,0.00,,,0.00,Wunderground v.1.15,2013-01-24 11:20:00,
2013-01-24 04:25:00,44.8,27.3,30.19,SW,227,1.0,2.0,50,0.00,,,0.00,Wunderground v.1.15,2013-01-24 11:25:00,
2013-01-24 04:30:00,45.1,27.6,30.19,SW,227,0.0,0.0,50,0.00,,,0.00,Wunderground v.1.15,2013-01-24 11:30:00,
2013-01-24 04:35:00,45.3,27.2,30.19,SW,227,0.0,0.0,49,0.00,,,0.00,Wunderground v.1.15,2013-01-24 11:35:00,
2013-01-24 04:40:00,45.4,26.8,30.19,SW,227,0.0,2.0,48,0.00,,,0.00,Wunderground v.1.15,2013-01-24 11:40:00,
2013-01-24 04:45:00,45.3,26.7,30.20,SW,227,1.0,2.0,48,0.00,,,0.00,Wunderground v.1.15,2013-01-24 11:45:00,
2013-01-24 04:50:00,45.2,26.7,30.19,SW,227,1.0,1.0,48,0.00,,,0.00,Wunderground v.1.15,2013-01-24 11:50:00,
2013-01-24 04:55:00,45.0,26.5,30.19,SW,227,0.0,1.0,48,0.00,,,0.00,Wunderground v.1.15,2013-01-24 11:55:00,
2013-01-24 05:00:00,44.8,27.3,30.19,SW,227,0.0,0.0,50,0.00,,,0.00,Wunderground v.1.15,2013-01-24 12:00:00,
2013-01-24 05:10:00,44.5,27.0,30.19,SW,227,0.0,0.0,50,0.00,,,0.00,Wunderground v.1.15,2013-01-24 12:10:00,
2013-01-24 05:15:00,44.5,27.5,30.19,SW,227,0.0,2.0,51,0.00,,,0.00,Wunderground v.1.15,2013-01-24 12:15:00,
2013-01-24 05:20:00,44.5,27.5,30.19,SW,227,1.0,1.0,51,0.00,,,0.00,Wunderground v.1.15,2013-01-24 12:20:00,
2013-01-24 05:25:00,44.6,27.6,30.19,SW,227,1.0,1.0,51,0.00,,,0.00,Wunderground v.1.15,2013-01-24 12:25:00,
2013-01-24 05:30:00,44.7,27.7,30.19,SW,227,0.0,0.0,51,0.00,,,0.00,Wunderground v.1.15,2013-01-24 12:30:00,
2013-01-24 05:35:00,44.7,27.7,30.19,SW,227,0.0,0.0,51,0.00,,,0.00,Wunderground v.1.15,2013-01-24 12:35:00,
2013-01-24 05:40:00,44.7,28.1,30.19,SW,227,0.0,0.0,52,0.00,,,0.00,Wunderground v.1.15,2013-01-24 12:40:00,
2013-01-24 05:45:00,44.8,28.2,30.19,SW,227,0.0,0.0,52,0.00,,,0.00,Wunderground v.1.15,2013-01-24 12:45:00,
2013-01-24 05:50:00,44.7,28.1,30.19,SW,227,0.0,0.0,52,0.00,,,0.00,Wunderground v.1.15,2013-01-24 12:50:00,
2013-01-24 05:55:00,44.7,28.6,30.19,SW,227,0.0,0.0,53,0.00,,,0.00,Wunderground v.1.15,2013-01-24 12:55:00,
2013-01-24 06:00:00,44.5,29.3,30.19,SW,227,0.0,0.0,55,0.00,,,0.00,Wunderground v.1.15,2013-01-24 13:00:00,
2013-01-24 06:10:00,44.2,29.0,30.19,SW,227,1.0,2.0,55,0.00,,,0.00,Wunderground v.1.15,2013-01-24 13:10:00,
2013-01-24 06:15:00,43.9,29.2,30.19,SW,222,3.0,3.0,56,0.00,,,0.00,Wunderground v.1.15,2013-01-24 13:15:00,
2013-01-24 06:20:00,43.5,29.3,30.19,SW,222,3.0,3.0,57,0.00,,,0.00,Wunderground v.1.15,2013-01-24 13:20:00,
2013-01-24 06:25:00,43.3,29.5,30.19,SW,222,2.0,3.0,58,0.00,,,0.00,Wunderground v.1.15,2013-01-24 13:25:00,
2013-01-24 06:30:00,43.2,29.4,30.19,SW,222,1.0,1.0,58,0.00,,,0.00,Wunderground v.1.15,2013-01-24 13:30:00,
2013-01-24 06:35:00,42.9,28.7,30.19,SW,222,0.0,1.0,57,0.00,,,0.00,Wunderground v.1.15,2013-01-24 13:35:00,
2013-01-24 06:40:00,42.7,28.9,30.19,SW,222,0.0,0.0,58,0.00,,,0.00,Wunderground v.1.15,2013-01-24 13:40:00,
2013-01-24 06:45:00,42.5,28.3,30.18,SW,222,0.0,0.0,57,0.00,,,0.00,Wunderground v.1.15,2013-01-24 13:45:00,
2013-01-24 06:50:00,42.5,28.3,30.19,SW,222,0.0,0.0,57,0.00,,,0.00,Wunderground v.1.15,2013-01-24 13:50:00,
2013-01-24 06:55:00,42.6,28.4,30.19,SW,222,0.0,0.0,57,0.00,,,0.00,Wunderground v.1.15,2013-01-24 13:55:00,
2013-01-24 07:00:00,42.8,28.6,30.19,SW,222,0.0,0.0,57,0.00,,,0.00,Wunderground v.1.15,2013-01-24 14:00:00,
2013-01-24 07:10:00,42.7,28.9,30.19,SW,222,0.0,0.0,58,0.00,,,0.00,Wunderground v.1.15,2013-01-24 14:10:00,
2013-01-24 07:15:00,42.8,29.0,30.19,SW,222,0.0,0.0,58,0.00,,,0.00,Wunderground v.1.15,2013-01-24 14:15:00,
2013-01-24 07:20:00,42.9,29.1,30.19,SW,222,1.0,1.0,58,0.00,,,0.00,Wunderground v.1.15,2013-01-24 14:20:00,
2013-01-24 07:25:00,43.1,29.7,30.19,SW,222,1.0,1.0,59,0.00,,,0.00,Wunderground v.1.15,2013-01-24 14:25:00,
2013-01-24 07:30:00,43.2,29.4,30.19,SW,222,0.0,0.0,58,0.00,,,0.00,Wunderground v.1.15,2013-01-24 14:30:00,
2013-01-24 07:40:00,43.8,30.0,30.20,SW,222,0.0,0.0,58,0.00,,,0.00,Wunderground v.1.15,2013-01-24 14:40:00,
2013-01-24 07:45:00,44.0,30.2,30.20,SW,222,0.0,0.0,58,0.00,,,0.00,Wunderground v.1.15,2013-01-24 14:45:00,
2013-01-24 07:50:00,44.1,30.3,30.20,SW,222,0.0,0.0,58,0.00,,,0.00,Wunderground v.1.15,2013-01-24 14:50:00,
2013-01-24 07:55:00,44.2,30.3,30.20,SW,222,0.0,0.0,58,0.00,,,0.00,Wunderground v.1.15,2013-01-24 14:55:00,
2013-01-24 08:00:00,44.5,30.2,30.20,SW,222,0.0,0.0,57,0.00,,,0.00,Wunderground v.1.15,2013-01-24 15:00:00,
2013-01-24 08:10:00,45.0,30.7,30.20,SW,222,0.0,0.0,57,0.00,,,0.00,Wunderground v.1.15,2013-01-24 15:10:00,
2013-01-24 08:20:00,45.7,31.8,30.20,SW,222,0.0,0.0,58,0.00,,,0.00,Wunderground v.1.15,2013-01-24 15:20:00,
2013-01-24 08:25:00,46.0,31.6,30.20,SW,222,0.0,0.0,57,0.00,,,0.00,Wunderground v.1.15,2013-01-24 15:25:00,
2013-01-24 08:30:00,46.6,31.3,30.20,SW,222,0.0,2.0,55,0.00,,,0.00,Wunderground v.1.15,2013-01-24 15:30:00,
2013-01-24 08:35:00,47.2,30.9,30.20,SW,222,0.0,2.0,53,0.00,,,0.00,Wunderground v.1.15,2013-01-24 15:35:00,
2013-01-24 08:45:00,49.0,30.7,30.20,SW,222,1.0,2.0,49,0.00,,,0.00,Wunderground v.1.15,2013-01-24 15:45:00,
2013-01-24 08:50:00,49.8,30.9,30.20,SW,222,0.0,0.0,48,0.00,,,0.00,Wunderground v.1.15,2013-01-24 15:50:00,
2013-01-24 08:55:00,51.0,30.4,30.20,SW,222,0.0,0.0,45,0.00,,,0.00,Wunderground v.1.15,2013-01-24 15:55:00,
2013-01-24 09:00:00,51.9,32.3,30.20,NNE,23,1.0,2.0,47,0.00,,,0.00,Wunderground v.1.15,2013-01-24 16:00:00,
2013-01-24 09:10:00,52.2,32.0,30.20,NE,41,2.0,2.0,46,0.00,,,0.00,Wunderground v.1.15,2013-01-24 16:10:00,
2013-01-24 09:15:00,52.2,32.0,30.20,NE,41,1.0,2.0,46,0.00,,,0.00,Wunderground v.1.15,2013-01-24 16:15:00,
2013-01-24 09:20:00,52.0,31.3,30.20,NE,41,1.0,1.0,45,0.00,,,0.00,Wunderground v.1.15,2013-01-24 16:20:00,
2013-01-24 09:25:00,51.8,30.6,30.21,NE,41,1.0,1.0,44,0.00,,,0.00,Wunderground v.1.15,2013-01-24 16:25:00,
2013-01-24 09:35:00,51.5,30.8,30.21,NE,41,1.0,1.0,45,0.00,,,0.00,Wunderground v.1.15,2013-01-24 16:35:00,
2013-01-24 09:40:00,51.4,30.2,30.21,NE,41,0.0,0.0,44,0.00,,,0.00,Wunderground v.1.15,2013-01-24 16:40:00,
2013-01-24 09:45:00,51.5,29.7,30.21,NE,41,0.0,0.0,43,0.00,,,0.00,Wunderground v.1.15,2013-01-24 16:45:00,
2013-01-24 09:50:00,51.6,29.2,30.21,NE,41,1.0,2.0,42,0.00,,,0.00,Wunderground v.1.15,2013-01-24 16:50:00,
2013-01-24 09:55:00,51.9,30.1,30.22,NE,40,1.0,2.0,43,0.00,,,0.00,Wunderground v.1.15,2013-01-24 16:55:00,
2013-01-24 10:00:00,52.3,29.3,30.22,NW,321,1.0,3.0,41,0.00,,,0.00,Wunderground v.1.15,2013-01-24 17:00:00,
2013-01-24 10:10:00,53.2,28.9,30.22,NW,304,1.0,1.0,39,0.00,,,0.00,Wunderground v.1.15,2013-01-24 17:10:00,
2013-01-24 10:15:00,54.1,29.0,30.22,WNW,298,1.0,3.0,38,0.00,,,0.00,Wunderground v.1.15,2013-01-24 17:15:00,
2013-01-24 10:25:00,55.2,29.4,30.21,WNW,284,1.0,3.0,37,0.00,,,0.00,Wunderground v.1.15,2013-01-24 17:25:00,
2013-01-24 10:30:00,55.7,29.8,30.22,WNW,284,1.0,1.0,37,0.00,,,0.00,Wunderground v.1.15,2013-01-24 17:30:00,
2013-01-24 10:35:00,56.0,29.4,30.22,WNW,284,0.0,1.0,36,0.00,,,0.00,Wunderground v.1.15,2013-01-24 17:35:00,
2013-01-24 10:45:00,56.3,30.3,30.22,WNW,296,2.0,2.0,37,0.00,,,0.00,Wunderground v.1.15,2013-01-24 17:45:00,
2013-01-24 10:50:00,56.4,30.4,30.22,WNW,296,1.0,1.0,37,0.00,,,0.00,Wunderground v.1.15,2013-01-24 17:50:00,
2013-01-24 10:55:00,56.5,29.8,30.22,WNW,296,1.0,1.0,36,0.00,,,0.00,Wunderground v.1.15,2013-01-24 17:55:00,
2013-01-24 11:00:00,56.7,30.0,30.22,WNW,296,1.0,1.0,36,0.00,,,0.00,Wunderground v.1.15,2013-01-24 18:00:00,
2013-01-24 11:10:00,56.9,30.2,30.21,WNW,296,0.0,0.0,36,0.00,,,0.00,Wunderground v.1.15,2013-01-24 18:10:00,
2013-01-24 11:15:00,57.3,30.5,30.21,NW,310,1.0,3.0,36,0.00,,,0.00,Wunderground v.1.15,2013-01-24 18:15:00,
2013-01-24 11:20:00,57.7,30.2,30.21,NW,312,2.0,2.0,35,0.00,,,0.00,Wunderground v.1.15,2013-01-24 18:20:00,
2013-01-24 11:25:00,58.1,30.6,30.21,NW,312,1.0,2.0,35,0.00,,,0.00,Wunderground v.1.15,2013-01-24 18:25:00,
2013-01-24 11:30:00,58.6,30.3,30.21,NW,312,1.0,1.0,34,0.00,,,0.00,Wunderground v.1.15,2013-01-24 18:30:00,
2013-01-24 11:40:00,59.2,30.8,30.20,NW,312,0.0,0.0,34,0.00,,,0.00,Wunderground v.1.15,2013-01-24 18:40:00,
2013-01-24 11:45:00,59.5,31.1,30.20,NW,312,0.0,1.0,34,0.00,,,0.00,Wunderground v.1.15,2013-01-24 18:45:00,
2013-01-24 11:50:00,59.9,31.4,30.20,NW,312,0.0,2.0,34,0.00,,,0.00,Wunderground v.1.15,2013-01-24 18:50:00,
2013-01-24 11:55:00,60.5,30.5,30.20,NW,312,0.0,2.0,32,0.00,,,0.00,Wunderground v.1.15,2013-01-24 18:55:00,
2013-01-24 12:00:00,60.9,30.8,30.20,NW,313,1.0,1.0,32,0.00,,,0.00,Wunderground v.1.15,2013-01-24 19:00:00,
2013-01-24 12:10:00,61.4,31.3,30.19,NW,316,2.0,2.0,32,0.00,,,0.00,Wunderground v.1.15,2013-01-24 19:10:00,
2013-01-24 12:15:00,61.7,30.7,30.19,NW,316,1.0,2.0,31,0.00,,,0.00,Wunderground v.1.15,2013-01-24 19:15:00,
2013-01-24 12:20:00,61.8,30.8,30.19,NW,316,1.0,1.0,31,0.00,,,0.00,Wunderground v.1.15,2013-01-24 19:20:00,
2013-01-24 12:25:00,61.9,30.9,30.19,NW,317,1.0,1.0,31,0.00,,,0.00,Wunderground v.1.15,2013-01-24 19:25:00,
2013-01-24 12:35:00,62.4,31.3,30.19,NW,317,0.0,1.0,31,0.00,,,0.00,Wunderground v.1.15,2013-01-24 19:35:00,
2013-01-24 12:40:00,62.8,31.7,30.18,NW,318,1.0,2.0,31,0.00,,,0.00,Wunderground v.1.15,2013-01-24 19:40:00,
2013-01-24 12:45:00,63.1,31.9,30.18,NW,324,2.0,2.0,31,0.00,,,0.00,Wunderground v.1.15,2013-01-24 19:45:00,
2013-01-24 12:55:00,63.3,32.1,30.17,NNW,338,3.0,3.0,31,0.00,,,0.00,Wunderground v.1.15,2013-01-24 19:55:00,
2013-01-24 13:00:00,63.4,33.0,30.17,NNW,336,3.0,3.0,32,0.00,,,0.00,Wunderground v.1.15,2013-01-24 20:00:00,
2013-01-24 13:10:00,63.6,32.4,30.16,NNW,337,2.0,2.0,31,0.00,,,0.00,Wunderground v.1.15,2013-01-24 20:10:00,
2013-01-24 13:15:00,63.5,35.3,30.16,NNW,337,2.0,4.0,35,0.00,,,0.00,Wunderground v.1.15,2013-01-24 20:15:00,
2013-01-24 13:20:00,63.3,39.2,30.16,NW,326,3.0,4.0,41,0.00,,,0.00,Wunderground v.1.15,2013-01-24 20:20:00,
2013-01-24 13:30:00,62.9,36.2,30.16,NNW,327,2.0,2.0,37,0.00,,,0.00,Wunderground v.1.15,2013-01-24 20:30:00,
2013-01-24 13:35:00,62.7,36.7,30.15,NW,310,1.0,3.0,38,0.00,,,0.00,Wunderground v.1.15,2013-01-24 20:35:00,
2013-01-24 13:40:00,62.6,35.9,30.15,NW,310,1.0,1.0,37,0.00,,,0.00,Wunderground v.1.15,2013-01-24 20:40:00,
2013-01-24 13:50:00,62.8,37.5,30.15,NW,313,0.0,1.0,39,0.00,,,0.00,Wunderground v.1.15,2013-01-24 20:50:00,
2013-01-24 13:55:00,62.9,35.5,30.15,NW,313,1.0,1.0,36,0.00,,,0.00,Wunderground v.1.15,2013-01-24 20:55:00,
2013-01-24 14:00:00,63.0,35.6,30.15,NW,313,1.0,1.0,36,0.00,,,0.00,Wunderground v.1.15,2013-01-24 21:00:00,
2013-01-24 14:10:00,62.9,36.9,30.14,NW,318,3.0,4.0,38,0.00,,,0.00,Wunderground v.1.15,2013-01-24 21:10:00,
2013-01-24 14:15:00,62.9,37.5,30.14,NW,319,3.0,4.0,39,0.00,,,0.00,Wunderground v.1.15,2013-01-24 21:15:00,
2013-01-24 14:20:00,62.9,36.9,30.14,NW,309,3.0,5.0,38,0.00,,,0.00,Wunderground v.1.15,2013-01-24 21:20:00,
2013-01-24 14:30:00,63.3,35.9,30.14,NW,319,6.0,7.0,36,0.00,,,0.00,Wunderground v.1.15,2013-01-24 21:30:00,
2013-01-24 14:40:00,63.5,36.0,30.14,WNW,300,7.0,7.0,36,0.00,,,0.00,Wunderground v.1.15,2013-01-24 21:40:00,
2013-01-24 14:45:00,63.7,36.2,30.13,NW,304,5.0,7.0,36,0.00,,,0.00,Wunderground v.1.15,2013-01-24 21:45:00,
2013-01-24 14:50:00,63.7,35.5,30.13,NW,312,5.0,7.0,35,0.00,,,0.00,Wunderground v.1.15,2013-01-24 21:50:00,
2013-01-24 15:00:00,63.5,36.7,30.13,NW,306,5.0,7.0,37,0.00,,,0.00,Wunderground v.1.15,2013-01-24 22:00:00,
2013-01-24 15:10:00,63.2,39.1,30.13,WNW,287,5.0,8.0,41,0.00,,,0.00,Wunderground v.1.15,2013-01-24 22:10:00,
2013-01-24 15:15:00,62.7,40.5,30.13,WNW,288,7.0,8.0,44,0.00,,,0.00,Wunderground v.1.15,2013-01-24 22:15:00,
2013-01-24 15:20:00,62.2,40.0,30.13,WNW,302,9.0,9.0,44,0.00,,,0.00,Wunderground v.1.15,2013-01-24 22:20:00,
2013-01-24 15:25:00,61.7,41.8,30.13,WNW,296,8.0,9.0,48,0.00,,,0.00,Wunderground v.1.15,2013-01-24 22:25:00,
2013-01-24 15:30:00,61.4,43.1,30.13,WNW,291,7.0,7.0,51,0.00,,,0.00,Wunderground v.1.15,2013-01-24 22:30:00,
2013-01-24 15:35:00,61.4,42.6,30.13,NW,305,6.0,7.0,50,0.00,,,0.00,Wunderground v.1.15,2013-01-24 22:35:00,
2013-01-24 15:45:00,61.3,39.8,30.13,NW,313,6.0,7.0,45,0.00,,,0.00,Wunderground v.1.15,2013-01-24 22:45:00,
2013-01-24 15:50:00,61.1,39.6,30.13,NW,324,6.0,7.0,45,0.00,,,0.00,Wunderground v.1.15,2013-01-24 22:50:00,
2013-01-24 15:55:00,60.9,38.8,30.13,NW,309,6.0,8.0,44,0.00,,,0.00,Wunderground v.1.15,2013-01-24 22:55:00,
2013-01-24 16:00:00,60.6,38.6,30.14,NW,306,6.0,6.0,44,0.00,,,0.00,Wunderground v.1.15,2013-01-24 23:00:00,
2013-01-24 16:10:00,60.3,38.3,30.14,WNW,292,6.0,6.0,44,0.00,,,0.00,Wunderground v.1.15,2013-01-24 23:10:00,
2013-01-24 16:15:00,60.0,38.0,30.14,NW,309,6.0,6.0,44,0.00,,,0.00,Wunderground v.1.15,2013-01-24 23:15:00,
2013-01-24 16:20:00,59.8,37.8,30.14,NW,308,5.0,5.0,44,0.00,,,0.00,Wunderground v.1.15,2013-01-24 23:20:00,
2013-01-24 16:25:00,59.6,38.8,30.14,WNW,302,4.0,5.0,46,0.00,,,0.00,Wunderground v.1.15,2013-01-24 23:25:00,
2013-01-24 16:35:00,59.7,38.9,30.14,NW,304,3.0,4.0,46,0.00,,,0.00,Wunderground v.1.15,2013-01-24 23:35:00,
2013-01-24 16:40:00,59.8,39.5,30.14,NW,304,2.0,2.0,47,0.00,,,0.00,Wunderground v.1.15,2013-01-24 23:40:00,
2013-01-24 16:45:00,59.9,39.1,30.14,NW,304,1.0,2.0,46,0.00,,,0.00,Wunderground v.1.15,2013-01-24 23:45:00,
2013-01-24 16:50:00,59.9,38.5,30.14,NW,304,0.0,0.0,45,0.00,,,0.00,Wunderground v.1.15,2013-01-24 23:50:00,
2013-01-24 17:00:00,59.9,38.5,30.15,NW,304,0.0,0.0,45,0.00,,,0.00,Wunderground v.1.15,2013-01-25 00:00:00,
2013-01-24 17:10:00,59.5,38.1,30.15,NW,304,0.0,2.0,45,0.00,,,0.00,Wunderground v.1.15,2013-01-25 00:10:00,
2013-01-24 17:20:00,59.1,38.3,30.15,NW,304,1.0,1.0,46,0.00,,,0.00,Wunderground v.1.15,2013-01-25 00:20:00,
2013-01-24 17:25:00,58.8,39.1,30.15,NW,304,0.0,1.0,48,0.00,,,0.00,Wunderground v.1.15,2013-01-25 00:25:00,
2013-01-24 17:30:00,58.6,38.4,30.15,NW,304,0.0,0.0,47,0.00,,,0.00,Wunderground v.1.15,2013-01-25 00:30:00,
2013-01-24 17:40:00,58.0,38.4,30.16,West,275,2.0,3.0,48,0.00,,,0.00,Wunderground v.1.15,2013-01-25 00:40:00,
2013-01-24 17:45:00,57.7,38.7,30.16,West,273,3.0,3.0,49,0.00,,,0.00,Wunderground v.1.15,2013-01-25 00:45:00,
2013-01-24 17:50:00,57.4,39.4,30.16,West,275,3.0,3.0,51,0.00,,,0.00,Wunderground v.1.15,2013-01-25 00:50:00,
2013-01-24 17:55:00,57.1,39.1,30.17,West,274,3.0,5.0,51,0.00,,,0.00,Wunderground v.1.15,2013-01-25 00:55:00,
2013-01-24 18:00:00,56.7,39.7,30.16,West,263,4.0,4.0,53,0.00,,,0.00,Wunderground v.1.15,2013-01-25 01:00:00,
2013-01-24 18:10:00,56.1,39.7,30.16,West,266,4.0,5.0,54,0.00,,,0.00,Wunderground v.1.15,2013-01-25 01:10:00,
2013-01-24 18:20:00,55.9,39.5,30.16,West,271,5.0,5.0,54,0.00,,,0.00,Wunderground v.1.15,2013-01-25 01:20:00,
2013-01-24 18:25:00,55.8,39.4,30.16,West,276,4.0,5.0,54,0.00,,,0.00,Wunderground v.1.15,2013-01-25 01:25:00,
2013-01-24 18:30:00,55.6,39.7,30.16,WNW,284,3.0,3.0,55,0.00,,,0.00,Wunderground v.1.15,2013-01-25 01:30:00,
2013-01-24 18:35:00,55.4,39.5,30.17,West,281,1.0,3.0,55,0.00,,,0.00,Wunderground v.1.15,2013-01-25 01:35:00,
2013-01-24 18:40:00,55.3,39.9,30.17,West,281,0.0,0.0,56,0.00,,,0.00,Wunderground v.1.15,2013-01-25 01:40:00,
2013-01-24 18:50:00,54.7,39.8,30.17,West,281,0.0,0.0,57,0.00,,,0.00,Wunderground v.1.15,2013-01-25 01:50:00,
2013-01-24 19:00:00,53.9,39.5,30.17,SSW,212,1.0,3.0,58,0.00,,,0.00,Wunderground v.1.15,2013-01-25 02:00:00,
2013-01-24 19:10:00,52.6,39.5,30.17,WSW,238,4.0,4.0,61,0.00,,,0.00,Wunderground v.1.15,2013-01-25 02:10:00,
2013-01-24 19:15:00,52.0,39.4,30.18,WSW,244,5.0,5.0,62,0.00,,,0.00,Wunderground v.1.15,2013-01-25 02:15:00,
2013-01-24 19:20:00,51.9,39.7,30.18,WSW,244,4.0,4.0,63,0.00,,,0.00,Wunderground v.1.15,2013-01-25 02:20:00,
2013-01-24 19:25:00,52.0,39.4,30.18,WSW,246,4.0,4.0,62,0.00,,,0.00,Wunderground v.1.15,2013-01-25 02:25:00,
2013-01-24 19:30:00,52.2,39.6,30.18,WSW,254,4.0,4.0,62,0.00,,,0.00,Wunderground v.1.15,2013-01-25 02:30:00,
2013-01-24 19:35:00,52.8,39.7,30.19,West,262,4.0,4.0,61,0.00,,,0.00,Wunderground v.1.15,2013-01-25 02:35:00,
2013-01-24 19:40:00,53.4,39.4,30.19,West,263,2.0,2.0,59,0.00,,,0.00,Wunderground v.1.15,2013-01-25 02:40:00,
2013-01-24 19:50:00,53.7,39.7,30.18,West,265,0.0,0.0,59,0.00,,,0.00,Wunderground v.1.15,2013-01-25 02:50:00,
2013-01-24 19:55:00,53.7,39.7,30.18,West,265,0.0,0.0,59,0.00,,,0.00,Wunderground v.1.15,2013-01-25 02:55:00,
2013-01-24 20:00:00,53.5,39.9,30.18,West,265,0.0,0.0,60,0.00,,,0.00,Wunderground v.1.15,2013-01-25 03:00:00,
2013-01-24 20:10:00,53.1,39.6,30.17,West,265,0.0,0.0,60,0.00,,,0.00,Wunderground v.1.15,2013-01-25 03:10:00,
2013-01-24 20:15:00,52.9,39.8,30.18,West,265,0.0,0.0,61,0.00,,,0.00,Wunderground v.1.15,2013-01-25 03:15:00,
2013-01-24 20:20:00,52.6,39.5,30.18,West,265,0.0,0.0,61,0.00,,,0.00,Wunderground v.1.15,2013-01-25 03:20:00,
2013-01-24 20:30:00,52.9,39.4,30.17,West,265,0.0,0.0,60,0.00,,,0.00,Wunderground v.1.15,2013-01-25 03:30:00,
2013-01-24 20:40:00,53.0,39.5,30.17,West,265,0.0,0.0,60,0.00,,,0.00,Wunderground v.1.15,2013-01-25 03:40:00,
2013-01-24 20:45:00,52.6,39.1,30.18,WSW,237,1.0,4.0,60,0.00,,,0.00,Wunderground v.1.15,2013-01-25 03:45:00,
2013-01-24 20:50:00,52.1,39.5,30.18,SW,214,4.0,5.0,62,0.00,,,0.00,Wunderground v.1.15,2013-01-25 03:50:00,
2013-01-24 20:55:00,51.9,39.3,30.19,SW,215,5.0,5.0,62,0.00,,,0.00,Wunderground v.1.15,2013-01-25 03:55:00,
2013-01-24 21:00:00,51.7,39.1,30.18,SSW,210,4.0,4.0,62,0.00,,,0.00,Wunderground v.1.15,2013-01-25 04:00:00,
2013-01-24 21:10:00,51.4,39.2,30.18,SSW,210,2.0,2.0,63,0.00,,,0.00,Wunderground v.1.15,2013-01-25 04:10:00,
2013-01-24 21:15:00,51.3,39.1,30.19,SSW,210,2.0,2.0,63,0.00,,,0.00,Wunderground v.1.15,2013-01-25 04:15:00,
2013-01-24 21:20:00,51.3,39.5,30.19,SSW,211,2.0,2.0,64,0.00,,,0.00,Wunderground v.1.15,2013-01-25 04:20:00,
2013-01-24 21:25:00,51.2,39.4,30.19,SSW,211,2.0,2.0,64,0.00,,,0.00,Wunderground v.1.15,2013-01-25 04:25:00,
2013-01-24 21:35:00,51.2,39.4,30.19,SSW,213,4.0,4.0,64,0.00,,,0.00,Wunderground v.1.15,2013-01-25 04:35:00,
2013-01-24 21:40:00,51.2,39.8,30.18,SSW,213,2.0,2.0,65,0.00,,,0.00,Wunderground v.1.15,2013-01-25 04:40:00,
2013-01-24 21:45:00,51.0,39.6,30.19,SSW,213,2.0,4.0,65,0.00,,,0.00,Wunderground v.1.15,2013-01-25 04:45:00,
2013-01-24 21:50:00,50.8,39.8,30.19,SSW,213,3.0,3.0,66,0.00,,,0.00,Wunderground v.1.15,2013-01-25 04:50:00,
2013-01-24 21:55:00,50.7,39.7,30.19,SSW,213,3.0,3.0,66,0.00,,,0.00,Wunderground v.1.15,2013-01-25 04:55:00,
2013-01-24 22:01:00,50.6,39.7,30.19,SSW,213,3.0,3.0,66,0.00,,,0.00,Wunderground v.1.15,2013-01-25 05:01:00,
2013-01-24 22:05:00,50.5,39.6,30.18,SSW,212,2.0,3.0,66,0.00,,,0.00,Wunderground v.1.15,2013-01-25 05:05:00,
2013-01-24 22:10:00,50.3,39.8,30.19,SSW,210,1.0,4.0,67,0.00,,,0.00,Wunderground v.1.15,2013-01-25 05:10:00,
2013-01-24 22:15:00,50.1,39.6,30.19,SSW,205,3.0,4.0,67,0.00,,,0.00,Wunderground v.1.15,2013-01-25 05:15:00,
2013-01-24 22:20:00,50.1,39.9,30.20,SSW,198,4.0,7.0,68,0.00,,,0.00,Wunderground v.1.15,2013-01-25 05:20:00,
2013-01-24 22:25:00,50.4,40.2,30.19,SSW,200,5.0,7.0,68,0.00,,,0.00,Wunderground v.1.15,2013-01-25 05:25:00,
2013-01-24 22:35:00,50.4,40.2,30.20,SSW,211,4.0,5.0,68,0.00,,,0.00,Wunderground v.1.15,2013-01-25 05:35:00,
2013-01-24 22:40:00,50.3,40.1,30.20,SSW,211,4.0,4.0,68,0.00,,,0.00,Wunderground v.1.15,2013-01-25 05:40:00,
2013-01-24 22:45:00,50.3,40.5,30.20,SSW,211,3.0,4.0,69,0.00,,,0.00,Wunderground v.1.15,2013-01-25 05:45:00,
2013-01-24 22:55:00,49.5,40.1,30.20,WSW,247,4.0,5.0,70,0.00,,,0.00,Wunderground v.1.15,2013-01-25 05:55:00,
2013-01-24 23:00:00,49.4,40.0,30.20,WSW,248,4.0,4.0,70,0.00,,,0.00,Wunderground v.1.15,2013-01-25 06:00:00,
2013-01-24 23:10:00,49.3,39.9,30.19,WSW,248,3.0,3.0,70,0.00,,,0.00,Wunderground v.1.15,2013-01-25 06:10:00,
2013-01-24 23:20:00,48.7,39.4,30.19,WSW,248,3.0,3.0,70,0.00,,,0.00,Wunderground v.1.15,2013-01-25 06:20:00,
2013-01-24 23:25:00,48.6,39.6,30.19,WSW,248,2.0,3.0,71,0.00,,,0.00,Wunderground v.1.15,2013-01-25 06:25:00,
2013-01-24 23:35:00,48.8,39.8,30.19,SW,221,3.0,4.0,71,0.00,,,0.00,Wunderground v.1.15,2013-01-25 06:35:00,
2013-01-24 23:40:00,48.7,40.1,30.19,SSW,212,3.0,5.0,72,0.00,,,0.00,Wunderground v.1.15,2013-01-25 06:40:00,
2013-01-24 23:45:00,48.7,40.1,30.19,SW,215,4.0,5.0,72,0.00,,,0.00,Wunderground v.1.15,2013-01-25 06:45:00,
2013-01-24 23:50:00,48.6,40.0,30.19,SW,215,3.0,3.0,72,0.00,,,0.00,Wunderground v.1.15,2013-01-25 06:50:00,
2013-01-24 23:55:00,48.7,40.1,30.19,SW,215,3.0,3.0,72,0.00,,,0.00,Wunderground v.1.15,2013-01-25 06:55:00,